Time;durP1;ratioP1;P1;durP2;ratioP2;P2;SDS_P1;SDS_P2;PMS_P1;PMS_P2;Temp;Humidity;BMP_temperature;BMP_pressure;BME280_temperature;BME280_humidity;BME280_pressure;Samples;Min_cycle;Max_cycle;Signal;HPM_P1;HPM_P2
2020/12/28 00:01:17;;;;;;;1.92;0.50;;;5.90;19.70;;;;;;5008832;28;20050;-74
2020/12/28 00:03:44;;;;;;;0.65;0.43;;;5.80;20.10;;;;;;5008633;28;20043;-78
2020/12/28 00:06:11;;;;;;;0.73;0.43;;;5.90;19.60;;;;;;5012439;28;20053;-74
2020/12/28 00:08:38;;;;;;;1.50;0.70;;;5.80;19.80;;;;;;5006681;28;20512;-74
2020/12/28 00:11:05;;;;;;;0.85;0.50;;;5.70;20.10;;;;;;5020358;28;20442;-77
2020/12/28 00:13:32;;;;;;;1.88;0.52;;;5.60;20.30;;;;;;5012745;28;20046;-78
2020/12/28 00:15:58;;;;;;;2.05;0.50;;;5.60;20.40;;;;;;5020861;28;20049;-73
2020/12/28 00:18:26;;;;;;;1.58;0.60;;;5.60;20.40;;;;;;5016170;28;20050;-73
2020/12/28 00:20:53;;;;;;;0.68;0.50;;;5.50;21.20;;;;;;5013732;28;20054;-75
2020/12/28 00:23:20;;;;;;;1.70;0.40;;;5.50;21.20;;;;;;5015004;28;20503;-74
2020/12/28 00:25:46;;;;;;;1.05;0.47;;;5.50;21.10;;;;;;5019505;28;20092;-73
2020/12/28 00:28:13;;;;;;;1.20;0.47;;;5.60;20.90;;;;;;5012852;28;20056;-75
2020/12/28 00:30:40;;;;;;;1.30;0.35;;;5.60;20.10;;;;;;5016398;28;20466;-73
2020/12/28 00:33:07;;;;;;;2.13;0.60;;;5.50;20.70;;;;;;5006858;28;20065;-73
2020/12/28 00:35:34;;;;;;;0.95;0.50;;;5.50;20.20;;;;;;5007948;28;20572;-73
2020/12/28 00:38:01;;;;;;;0.50;0.40;;;5.50;20.30;;;;;;5005593;28;20508;-73
2020/12/28 00:40:28;;;;;;;0.80;0.40;;;5.40;20.80;;;;;;5009516;28;20054;-74
2020/12/28 00:42:55;;;;;;;0.82;0.38;;;5.40;21.30;;;;;;5004683;28;20068;-74
2020/12/28 00:45:22;;;;;;;0.50;0.40;;;5.40;21.00;;;;;;5013834;28;20624;-74
2020/12/28 00:47:48;;;;;;;0.80;0.40;;;5.30;21.10;;;;;;5010604;28;20508;-73
2020/12/28 00:50:15;;;;;;;1.40;0.60;;;5.40;20.90;;;;;;5007037;28;20049;-74
2020/12/28 00:52:43;;;;;;;1.10;0.50;;;5.30;21.10;;;;;;5007573;28;20057;-74
2020/12/28 00:55:10;;;;;;;0.50;0.30;;;5.30;21.10;;;;;;5007660;28;20050;-74
2020/12/28 00:57:37;;;;;;;0.57;0.40;;;5.40;20.70;;;;;;5011785;28;20049;-74
2020/12/28 01:00:04;;;;;;;0.60;0.40;;;5.40;20.50;;;;;;5009547;28;20054;-73
2020/12/28 01:02:31;;;;;;;5.05;0.63;;;5.50;19.90;;;;;;5006650;28;20050;-74
2020/12/28 01:04:58;;;;;;;1.17;0.70;;;5.50;19.70;;;;;;5012829;28;20057;-73
2020/12/28 01:07:25;;;;;;;1.17;0.55;;;5.50;19.60;;;;;;5009121;28;21425;-73
2020/12/28 01:09:53;;;;;;;1.58;0.70;;;5.50;19.50;;;;;;5010347;28;20096;-71
2020/12/28 01:12:20;;;;;;;1.02;0.50;;;5.50;19.90;;;;;;5010127;28;20046;-73
2020/12/28 01:14:47;;;;;;;0.98;0.57;;;5.40;20.10;;;;;;5011533;28;20049;-74
2020/12/28 01:17:14;;;;;;;2.08;0.80;;;5.50;20.00;;;;;;5008802;28;20128;-74
2020/12/28 01:19:40;;;;;;;1.48;0.63;;;5.60;19.70;;;;;;5009756;28;20045;-73
2020/12/28 01:22:07;;;;;;;3.97;0.70;;;5.60;19.70;;;;;;5014128;28;20527;-72
2020/12/28 01:24:34;;;;;;;0.75;0.50;;;5.50;20.10;;;;;;5011875;28;20041;-73
2020/12/28 01:27:02;;;;;;;0.82;0.50;;;5.50;20.30;;;;;;5016958;28;20073;-73
2020/12/28 01:29:29;;;;;;;1.13;0.65;;;5.50;20.40;;;;;;5014803;28;20056;-73
2020/12/28 01:31:56;;;;;;;0.82;0.57;;;5.40;21.10;;;;;;5020207;28;20054;-72
2020/12/28 01:34:23;;;;;;;0.93;0.60;;;5.50;21.10;;;;;;5022563;28;20041;-73
2020/12/28 01:36:50;;;;;;;0.68;0.50;;;5.40;21.20;;;;;;5019273;28;20049;-74
2020/12/28 01:39:17;;;;;;;1.98;0.90;;;5.50;21.30;;;;;;5008942;28;20046;-73
2020/12/28 01:41:44;;;;;;;1.42;0.70;;;5.50;21.50;;;;;;5007459;28;20492;-77
2020/12/28 01:44:12;;;;;;;1.67;0.70;;;5.50;21.40;;;;;;5009336;28;20050;-73
2020/12/28 01:46:39;;;;;;;2.85;1.45;;;5.50;21.70;;;;;;5019520;28;20045;-72
2020/12/28 01:49:06;;;;;;;2.88;1.23;;;5.40;22.20;;;;;;5010406;28;20054;-74
2020/12/28 01:51:33;;;;;;;2.90;1.00;;;5.30;22.70;;;;;;5014880;28;20057;-74
2020/12/28 01:54:01;;;;;;;1.30;0.70;;;5.40;22.80;;;;;;5024918;28;20104;-74
2020/12/28 01:56:28;;;;;;;1.20;0.80;;;5.40;22.50;;;;;;5013761;28;20054;-73
2020/12/28 01:58:55;;;;;;;1.13;0.63;;;5.30;23.20;;;;;;5016733;28;20467;-74
2020/12/28 02:01:26;;;;;;;1.27;0.80;;;5.30;23.20;;;;;;5016936;28;20050;-72
2020/12/28 02:03:52;;;;;;;1.98;0.90;;;5.20;23.70;;;;;;5020668;28;20056;-74
2020/12/28 02:06:19;;;;;;;1.00;0.60;;;5.20;24.60;;;;;;5020982;28;20046;-72
2020/12/28 02:08:46;;;;;;;1.35;0.70;;;5.10;25.00;;;;;;5016277;28;20058;-73
2020/12/28 02:11:13;;;;;;;0.65;0.60;;;5.10;25.30;;;;;;5011138;28;20061;-72
2020/12/28 02:13:40;;;;;;;1.73;0.68;;;5.20;25.30;;;;;;5009931;28;20045;-73
2020/12/28 02:16:08;;;;;;;1.40;0.70;;;5.20;26.30;;;;;;5012712;28;20057;-73
2020/12/28 02:18:36;;;;;;;0.98;0.70;;;5.10;26.90;;;;;;5009394;28;20042;-73
2020/12/28 02:21:03;;;;;;;2.00;0.75;;;5.10;27.70;;;;;;5013837;28;20049;-73
2020/12/28 02:23:30;;;;;;;1.08;0.70;;;5.10;28.20;;;;;;5009830;28;20053;-73
2020/12/28 02:25:57;;;;;;;1.27;0.80;;;5.10;28.90;;;;;;5012017;28;20046;-73
2020/12/28 02:28:24;;;;;;;0.80;0.75;;;5.10;29.80;;;;;;5006134;28;20045;-73
2020/12/28 02:30:51;;;;;;;1.10;0.70;;;5.20;29.90;;;;;;5010427;28;20057;-72
2020/12/28 02:33:18;;;;;;;1.10;0.85;;;5.20;29.90;;;;;;5006231;28;20052;-73
2020/12/28 02:35:44;;;;;;;1.50;0.70;;;5.10;31.30;;;;;;5012293;28;20060;-73
2020/12/28 02:38:11;;;;;;;1.15;0.77;;;5.10;31.40;;;;;;5012923;28;20060;-73
2020/12/28 02:40:39;;;;;;;0.90;0.70;;;5.20;31.10;;;;;;5010326;28;20050;-74
2020/12/28 02:43:06;;;;;;;1.02;0.75;;;5.20;31.10;;;;;;5010144;28;20038;-73
2020/12/28 02:45:33;;;;;;;1.75;0.95;;;5.20;31.70;;;;;;5010813;28;20133;-73
2020/12/28 02:48:00;;;;;;;1.15;0.82;;;5.20;32.50;;;;;;5007414;28;20061;-73
2020/12/28 02:50:26;;;;;;;4.75;0.88;;;5.30;32.80;;;;;;5013496;28;20046;-73
2020/12/28 02:52:53;;;;;;;0.90;0.70;;;5.30;32.70;;;;;;5008791;28;20053;-73
2020/12/28 02:55:20;;;;;;;1.40;1.00;;;5.30;32.80;;;;;;5010708;28;20046;-74
2020/12/28 03:01:37;;;;;;;1.15;0.85;;;5.30;33.20;;;;;;5006968;28;20135;-73
2020/12/28 03:04:04;;;;;;;1.15;0.80;;;5.40;33.00;;;;;;5004588;28;20137;-73
2020/12/28 03:06:31;;;;;;;3.83;0.80;;;5.50;32.00;;;;;;5005740;28;20041;-72
2020/12/28 03:08:58;;;;;;;0.75;0.73;;;5.50;32.50;;;;;;5007032;28;20431;-73
2020/12/28 03:11:25;;;;;;;0.95;0.73;;;5.40;32.80;;;;;;5010189;28;20116;-73
2020/12/28 03:13:53;;;;;;;1.38;0.95;;;5.50;33.00;;;;;;5008246;28;20057;-73
2020/12/28 03:16:20;;;;;;;1.60;0.93;;;5.40;33.90;;;;;;5009184;28;20061;-73
2020/12/28 03:18:47;;;;;;;1.05;0.70;;;5.30;35.00;;;;;;5001517;28;20108;-72
2020/12/28 03:21:14;;;;;;;1.40;0.82;;;5.30;36.10;;;;;;5010494;28;20050;-72
2020/12/28 03:23:41;;;;;;;1.13;0.52;;;5.20;37.50;;;;;;5007790;28;20041;-72
2020/12/28 03:26:09;;;;;;;1.33;0.60;;;5.10;38.10;;;;;;5008635;28;20508;-73
2020/12/28 03:28:35;;;;;;;1.08;0.60;;;5.10;39.90;;;;;;5007953;28;20118;-73
2020/12/28 03:31:02;;;;;;;0.82;0.70;;;5.10;40.60;;;;;;5014030;28;20042;-75
2020/12/28 03:33:29;;;;;;;4.50;0.82;;;5.00;41.20;;;;;;5012899;28;20422;-73
2020/12/28 03:35:57;;;;;;;0.55;0.45;;;5.00;42.50;;;;;;5018358;28;20420;-73
2020/12/28 03:38:24;;;;;;;3.83;0.70;;;5.00;42.60;;;;;;5012311;28;20052;-73
2020/12/28 03:40:52;;;;;;;1.52;0.73;;;4.90;42.70;;;;;;5009819;28;20049;-74
2020/12/28 03:43:19;;;;;;;1.27;0.77;;;4.90;43.10;;;;;;5007712;28;20048;-73
2020/12/28 03:45:45;;;;;;;1.90;0.65;;;4.90;43.70;;;;;;5019694;28;20048;-74
2020/12/28 03:48:12;;;;;;;0.88;0.52;;;4.80;43.90;;;;;;5014947;28;20106;-72
2020/12/28 03:50:40;;;;;;;1.73;0.70;;;4.80;44.30;;;;;;5013799;28;20104;-78
2020/12/28 03:53:07;;;;;;;0.88;0.50;;;4.80;44.50;;;;;;5011182;28;20056;-72
2020/12/28 03:55:34;;;;;;;1.20;0.60;;;4.80;44.90;;;;;;5022213;28;20072;-73
2020/12/28 03:58:01;;;;;;;1.25;0.75;;;4.80;44.90;;;;;;5022009;28;20165;-72
2020/12/28 04:00:28;;;;;;;1.92;0.50;;;4.80;45.00;;;;;;5017872;28;20060;-75
2020/12/28 04:02:56;;;;;;;0.80;0.60;;;4.70;45.20;;;;;;5020142;28;20610;-72
2020/12/28 04:05:22;;;;;;;0.68;0.50;;;4.80;44.50;;;;;;5026362;28;20107;-72
2020/12/28 04:07:49;;;;;;;2.33;0.73;;;4.70;44.50;;;;;;5015649;28;20059;-75
2020/12/28 04:10:17;;;;;;;0.73;0.50;;;4.60;45.10;;;;;;5014033;28;20049;-73
2020/12/28 04:12:44;;;;;;;1.40;0.80;;;4.50;45.80;;;;;;5015304;28;20061;-73
2020/12/28 04:15:11;;;;;;;1.67;0.60;;;4.50;45.50;;;;;;5021118;28;20057;-71
2020/12/28 04:17:38;;;;;;;1.52;0.80;;;4.60;44.60;;;;;;5022501;28;20064;-72
2020/12/28 04:20:05;;;;;;;1.25;0.77;;;4.60;44.00;;;;;;5018267;28;20057;-72
2020/12/28 04:22:32;;;;;;;2.13;0.73;;;4.60;43.90;;;;;;5023471;28;20050;-72
2020/12/28 04:24:59;;;;;;;0.70;0.55;;;4.50;44.00;;;;;;5019657;28;20061;-73
2020/12/28 04:27:26;;;;;;;1.73;0.60;;;4.50;44.20;;;;;;5018145;28;20060;-72
2020/12/28 04:29:53;;;;;;;1.15;0.45;;;4.40;44.20;;;;;;5016550;28;20053;-73
2020/12/28 04:32:20;;;;;;;0.50;0.40;;;4.50;44.80;;;;;;5007982;28;20046;-74
2020/12/28 04:34:47;;;;;;;2.47;0.70;;;4.50;44.00;;;;;;5020087;28;20064;-72
2020/12/28 04:37:14;;;;;;;0.55;0.43;;;4.50;43.90;;;;;;5013588;28;20060;-72
2020/12/28 04:39:41;;;;;;;1.00;0.43;;;4.50;43.60;;;;;;5013032;28;20060;-74
2020/12/28 04:42:08;;;;;;;1.40;0.45;;;4.60;43.40;;;;;;5024287;28;20060;-72
2020/12/28 04:44:36;;;;;;;0.95;0.43;;;4.60;42.50;;;;;;5011203;28;20054;-73
2020/12/28 04:47:02;;;;;;;1.42;0.50;;;4.60;43.00;;;;;;5013083;28;20049;-72
2020/12/28 04:49:30;;;;;;;3.15;0.50;;;4.50;43.30;;;;;;5017053;28;20069;-74
2020/12/28 04:51:57;;;;;;;0.40;0.30;;;4.50;43.50;;;;;;5015076;28;20054;-72
2020/12/28 04:54:24;;;;;;;2.05;0.50;;;4.60;43.60;;;;;;5019218;28;20054;-72
2020/12/28 04:56:52;;;;;;;0.93;0.32;;;4.60;43.00;;;;;;5014352;28;20056;-71
2020/12/28 04:59:19;;;;;;;1.13;0.60;;;4.60;42.40;;;;;;5011673;28;20096;-71
2020/12/28 05:01:54;;;;;;;1.10;0.50;;;4.60;42.20;;;;;;5018080;28;20046;-71
2020/12/28 05:04:24;;;;;;;0.80;0.30;;;4.60;41.60;;;;;;5015678;28;20052;-72
2020/12/28 05:07:01;;;;;;;0.60;0.40;;;4.60;41.90;;;;;;5014805;28;20136;-72
2020/12/28 05:09:28;;;;;;;0.45;0.45;;;4.50;42.30;;;;;;5018181;28;20054;-72
2020/12/28 05:11:57;;;;;;;0.68;0.57;;;4.50;42.70;;;;;;5012692;28;20132;-72
2020/12/28 05:14:24;;;;;;;1.40;0.60;;;4.50;43.10;;;;;;5013323;28;20045;-73
2020/12/28 05:16:58;;;;;;;0.60;0.40;;;4.40;43.40;;;;;;5021902;28;20061;-73
2020/12/28 05:19:25;;;;;;;0.57;0.40;;;4.40;43.90;;;;;;5015913;28;20053;-72
2020/12/28 05:21:53;;;;;;;5.75;5.35;;;4.50;43.20;;;;;;5020093;28;20507;-72
2020/12/28 05:24:21;;;;;;;1.90;1.15;;;4.40;43.50;;;;;;5009977;28;20053;-73
2020/12/28 05:26:48;;;;;;;3.47;0.80;;;4.40;43.30;;;;;;5015794;28;20060;-72
2020/12/28 05:29:18;;;;;;;0.52;0.40;;;4.50;43.30;;;;;;5014458;28;20460;-72
2020/12/28 05:31:46;;;;;;;2.47;1.30;;;4.50;43.40;;;;;;5016561;28;20053;-74
2020/12/28 05:34:15;;;;;;;11.07;4.50;;;4.50;43.20;;;;;;5012577;28;20042;-72
2020/12/28 05:36:45;;;;;;;9.98;4.05;;;4.50;43.10;;;;;;5016276;28;20055;-74
2020/12/28 05:39:15;;;;;;;6.80;2.85;;;4.60;42.80;;;;;;5015568;28;20540;-73
2020/12/28 05:41:56;;;;;;;3.72;1.27;;;4.60;43.00;;;;;;5011378;28;20132;-73
2020/12/28 05:44:25;;;;;;;0.98;0.60;;;4.60;43.50;;;;;;5013081;28;20052;-73
2020/12/28 05:47:05;;;;;;;1.08;0.80;;;4.60;43.10;;;;;;5010337;28;20053;-74
2020/12/28 05:49:35;;;;;;;1.00;0.73;;;4.50;43.50;;;;;;5016455;28;20060;-72
2020/12/28 05:52:06;;;;;;;0.50;0.40;;;4.60;43.10;;;;;;5011534;28;20064;-73
2020/12/28 05:54:34;;;;;;;1.80;0.80;;;4.60;42.90;;;;;;5010246;28;20076;-73
2020/12/28 05:57:02;;;;;;;0.75;0.52;;;4.60;43.20;;;;;;5011738;28;20045;-72
2020/12/28 05:59:30;;;;;;;1.25;0.70;;;4.60;42.90;;;;;;5011484;28;20056;-73
2020/12/28 06:01:58;;;;;;;4.13;0.70;;;4.60;42.90;;;;;;5012706;28;20053;-72
2020/12/28 06:04:25;;;;;;;2.25;1.25;;;4.60;43.00;;;;;;5011075;28;20038;-72
2020/12/28 06:06:58;;;;;;;2.10;0.60;;;4.60;42.40;;;;;;5012467;28;20487;-72
2020/12/28 06:09:25;;;;;;;4.18;1.10;;;4.60;42.70;;;;;;5011492;28;20046;-72
2020/12/28 06:12:02;;;;;;;1.45;0.88;;;4.60;42.10;;;;;;5006868;28;20053;-72
2020/12/28 06:14:33;;;;;;;1.40;0.50;;;4.60;41.90;;;;;;5018304;28;20053;-72
2020/12/28 06:17:04;;;;;;;1.30;0.90;;;4.60;41.40;;;;;;5015482;28;20432;-74
2020/12/28 06:19:31;;;;;;;4.47;0.85;;;4.60;41.20;;;;;;5010081;28;20057;-72
2020/12/28 06:21:59;;;;;;;2.08;0.68;;;4.70;41.20;;;;;;5010211;28;20053;-72
2020/12/28 06:24:27;;;;;;;1.67;0.65;;;4.70;40.20;;;;;;5009943;28;20058;-72
2020/12/28 06:27:00;;;;;;;1.20;0.50;;;4.70;40.50;;;;;;5019941;28;20061;-72
2020/12/28 06:29:36;;;;;;;2.58;0.63;;;4.70;40.40;;;;;;5103930;27;20350;-73
2020/12/28 06:32:13;;;;;;;1.00;0.50;;;4.70;41.00;;;;;;5103802;28;20498;-74
2020/12/28 06:34:43;;;;;;;1.88;0.70;;;4.70;40.20;;;;;;5102353;28;20051;-73
2020/12/28 06:37:11;;;;;;;1.05;0.60;;;4.80;40.00;;;;;;5099187;28;20040;-73
2020/12/28 06:39:38;;;;;;;0.73;0.60;;;4.80;40.30;;;;;;5083614;28;20052;-73
2020/12/28 06:42:09;;;;;;;1.00;0.60;;;4.80;40.70;;;;;;5084172;28;20044;-73
2020/12/28 06:44:38;;;;;;;1.63;0.68;;;4.80;40.80;;;;;;5082919;28;20068;-72
2020/12/28 06:47:19;;;;;;;1.38;0.90;;;4.80;41.60;;;;;;5085738;28;20050;-73
2020/12/28 06:49:46;;;;;;;1.45;0.70;;;4.80;42.10;;;;;;5083056;28;20048;-72
2020/12/28 06:52:13;;;;;;;1.58;0.60;;;4.80;42.50;;;;;;5083966;28;20413;-72
2020/12/28 06:54:40;;;;;;;1.17;0.73;;;4.80;42.80;;;;;;5082350;28;20417;-72
2020/12/28 06:57:08;;;;;;;1.25;0.73;;;4.70;44.10;;;;;;5084055;28;20052;-73
2020/12/28 06:59:37;;;;;;;2.30;0.80;;;4.80;44.20;;;;;;5083788;28;20131;-72
2020/12/28 07:02:04;;;;;;;1.70;0.82;;;4.70;44.80;;;;;;5084578;28;20052;-73
2020/12/28 07:04:35;;;;;;;1.65;1.02;;;4.70;46.00;;;;;;5082643;28;20131;-73
2020/12/28 07:07:05;;;;;;;1.65;0.85;;;4.70;46.10;;;;;;5085966;28;20044;-73
2020/12/28 07:09:32;;;;;;;0.95;0.70;;;4.70;46.80;;;;;;5083233;28;20131;-73
2020/12/28 07:12:05;;;;;;;1.50;0.80;;;4.70;48.30;;;;;;5083755;28;20067;-71
2020/12/28 07:14:32;;;;;;;2.63;1.08;;;4.70;48.60;;;;;;5083923;28;20050;-72
2020/12/28 07:17:00;;;;;;;3.20;1.25;;;4.70;48.40;;;;;;5084179;28;20050;-73
2020/12/28 07:19:27;;;;;;;3.00;1.00;;;4.70;48.70;;;;;;5076900;28;20167;-73
2020/12/28 07:21:54;;;;;;;1.40;0.93;;;4.60;48.60;;;;;;5083711;28;20063;-71
2020/12/28 07:24:21;;;;;;;0.75;0.45;;;4.60;48.10;;;;;;5082512;28;20052;-71
2020/12/28 07:26:47;;;;;;;2.33;0.90;;;4.70;46.90;;;;;;5084716;28;20071;-72
2020/12/28 07:29:15;;;;;;;2.70;0.90;;;4.70;47.70;;;;;;5083135;28;20055;-73
2020/12/28 07:31:43;;;;;;;1.40;1.00;;;4.60;47.30;;;;;;5082036;28;20699;-72
2020/12/28 07:34:14;;;;;;;1.90;1.05;;;4.60;47.90;;;;;;5084279;28;20052;-74
2020/12/28 07:36:45;;;;;;;2.20;0.80;;;4.60;46.90;;;;;;5085216;28;20048;-72
2020/12/28 07:39:13;;;;;;;1.70;0.75;;;4.60;48.10;;;;;;5079365;28;20564;-72
2020/12/28 07:41:40;;;;;;;1.92;1.10;;;4.60;48.00;;;;;;5069384;28;20056;-72
2020/12/28 07:44:07;;;;;;;1.67;0.70;;;4.60;48.50;;;;;;5069206;28;20045;-72
2020/12/28 07:46:45;;;;;;;0.93;0.60;;;4.60;48.80;;;;;;5072035;28;20129;-72
2020/12/28 07:49:19;;;;;;;1.65;0.85;;;4.60;49.30;;;;;;5070712;28;20080;-73
2020/12/28 07:51:50;;;;;;;4.72;0.70;;;4.60;50.30;;;;;;5067808;28;20191;-72
2020/12/28 07:54:22;;;;;;;2.30;1.10;;;4.60;51.30;;;;;;5070050;28;20051;-72
2020/12/28 07:56:52;;;;;;;1.58;0.80;;;4.50;51.30;;;;;;5071579;28;20051;-72
2020/12/28 07:59:51;;;;;;;2.05;1.15;;;4.50;52.40;;;;;;5067874;28;20044;-75
2020/12/28 08:02:36;;;;;;;5.30;1.10;;;4.50;52.90;;;;;;5067278;28;20053;-72
2020/12/28 08:05:04;;;;;;;1.45;0.75;;;4.50;53.90;;;;;;5069119;28;20135;-73
2020/12/28 08:07:34;;;;;;;2.22;0.90;;;4.40;54.20;;;;;;5072111;28;20059;-74
2020/12/28 08:10:06;;;;;;;2.17;1.25;;;4.50;55.20;;;;;;5067380;28;20515;-74
2020/12/28 08:12:33;;;;;;;2.17;1.30;;;4.40;55.60;;;;;;5071130;28;20048;-72
2020/12/28 08:15:00;;;;;;;1.30;0.90;;;4.40;56.60;;;;;;5068930;28;20410;-73
2020/12/28 08:17:28;;;;;;;3.47;1.40;;;4.40;57.10;;;;;;5070684;28;20060;-72
2020/12/28 08:20:08;;;;;;;2.00;1.40;;;4.50;57.70;;;;;;5068306;28;20048;-71
2020/12/28 08:22:35;;;;;;;7.72;2.00;;;4.50;57.70;;;;;;5071160;28;20513;-71
2020/12/28 08:25:04;;;;;;;3.90;1.73;;;4.50;58.30;;;;;;5068437;28;20044;-72
2020/12/28 08:27:31;;;;;;;2.85;1.67;;;4.50;59.30;;;;;;5071066;28;20438;-71
2020/12/28 08:29:59;;;;;;;4.43;1.75;;;4.50;60.00;;;;;;5068670;28;20044;-72
2020/12/28 08:32:27;;;;;;;3.90;1.88;;;4.40;61.50;;;;;;5068383;28;20048;-72
2020/12/28 08:34:55;;;;;;;10.82;4.55;;;4.40;60.50;;;;;;5067039;28;20059;-72
2020/12/28 08:37:32;;;;;;;2.10;1.42;;;4.50;61.70;;;;;;5070324;28;20519;-72
2020/12/28 08:39:59;;;;;;;4.38;1.60;;;4.50;61.80;;;;;;5067375;28;20119;-72
2020/12/28 08:42:28;;;;;;;1.75;0.95;;;4.50;61.90;;;;;;5070116;28;20139;-72
2020/12/28 08:44:55;;;;;;;2.33;1.20;;;4.50;61.80;;;;;;5066704;28;20059;-72
2020/12/28 08:47:25;;;;;;;6.05;1.20;;;4.40;61.60;;;;;;5069088;28;20052;-70
2020/12/28 08:49:53;;;;;;;1.65;1.10;;;4.50;61.80;;;;;;5068270;28;20044;-72
2020/12/28 08:52:21;;;;;;;3.88;1.10;;;4.50;61.50;;;;;;5066915;28;20520;-72
2020/12/28 08:54:55;;;;;;;2.03;1.00;;;4.50;61.60;;;;;;5068071;28;20053;-72
2020/12/28 08:57:24;;;;;;;1.42;1.00;;;4.50;59.80;;;;;;5069329;28;20040;-72
2020/12/28 08:59:52;;;;;;;1.92;1.15;;;4.50;59.50;;;;;;5067461;28;20048;-73
2020/12/28 09:02:21;;;;;;;1.33;0.98;;;4.50;59.60;;;;;;5070176;28;20421;-74
2020/12/28 09:04:48;;;;;;;3.40;0.70;;;4.60;60.30;;;;;;5068290;28;20238;-72
2020/12/28 09:07:15;;;;;;;3.70;1.58;;;4.50;59.10;;;;;;5069998;28;20059;-71
2020/12/28 09:09:43;;;;;;;4.15;1.40;;;4.60;59.90;;;;;;5067226;28;20419;-73
2020/12/28 09:12:12;;;;;;;1.52;0.90;;;4.50;60.70;;;;;;5069749;28;20082;-72
2020/12/28 09:14:39;;;;;;;2.13;0.88;;;4.60;60.60;;;;;;5068452;28;20048;-72
2020/12/28 09:17:15;;;;;;;1.67;0.98;;;4.60;59.60;;;;;;5070826;28;20067;-72
2020/12/28 09:19:41;;;;;;;1.58;0.90;;;4.60;61.20;;;;;;5067811;28;20051;-73
2020/12/28 09:22:08;;;;;;;1.45;0.80;;;4.70;61.90;;;;;;5069673;28;20414;-72
2020/12/28 09:24:35;;;;;;;2.80;1.02;;;4.60;61.60;;;;;;5069044;28;20135;-72
2020/12/28 09:27:02;;;;;;;10.02;3.80;;;4.70;61.30;;;;;;5069203;28;20125;-72
2020/12/28 09:29:30;;;;;;;5.88;1.13;;;4.70;61.90;;;;;;5069079;28;20502;-72
2020/12/28 09:31:57;;;;;;;2.20;1.00;;;4.70;60.20;;;;;;5066146;28;20047;-72
2020/12/28 09:34:24;;;;;;;6.43;1.20;;;4.80;59.20;;;;;;5068538;28;20072;-72
2020/12/28 09:37:01;;;;;;;1.75;1.02;;;4.70;58.60;;;;;;5070672;28;20049;-72
2020/12/28 09:39:28;;;;;;;2.38;1.23;;;4.80;58.00;;;;;;5064559;28;20545;-72
2020/12/28 09:41:55;;;;;;;4.05;1.70;;;4.80;58.00;;;;;;5070031;28;20048;-72
2020/12/28 09:44:23;;;;;;;3.42;1.70;;;4.80;57.90;;;;;;5069173;28;20051;-73
2020/12/28 09:46:52;;;;;;;1.92;1.20;;;4.80;58.00;;;;;;5070084;28;20049;-73
2020/12/28 09:49:19;;;;;;;1.75;1.20;;;4.80;58.00;;;;;;5069088;28;20056;-72
2020/12/28 09:51:46;;;;;;;2.30;1.45;;;4.80;58.00;;;;;;5070152;28;20056;-72
2020/12/28 09:54:13;;;;;;;2.25;1.50;;;4.80;58.00;;;;;;5069354;28;20049;-71
2020/12/28 09:57:04;;;;;;;1.77;1.20;;;4.90;58.10;;;;;;5070251;28;20565;-72
2020/12/28 09:59:35;;;;;;;3.00;1.58;;;4.90;58.10;;;;;;5068465;28;20094;-71
2020/12/28 10:02:03;;;;;;;4.28;1.70;;;5.00;58.70;;;;;;5069297;28;20518;-73
2020/12/28 10:04:29;;;;;;;2.85;1.90;;;5.00;58.20;;;;;;5069082;28;20131;-71
2020/12/28 10:06:56;;;;;;;1.98;1.30;;;5.00;58.20;;;;;;5070122;28;20414;-71
2020/12/28 10:09:23;;;;;;;3.05;1.80;;;5.00;56.80;;;;;;5068915;28;20050;-72
2020/12/28 10:11:51;;;;;;;2.97;1.90;;;5.10;56.50;;;;;;5069764;28;20076;-72
2020/12/28 10:14:18;;;;;;;2.83;1.90;;;5.10;56.40;;;;;;5068170;28;20521;-71
2020/12/28 10:16:45;;;;;;;1.95;1.75;;;5.10;57.10;;;;;;5069706;28;20059;-72
2020/12/28 10:19:12;;;;;;;4.38;1.90;;;5.20;54.40;;;;;;5068675;28;20056;-73
2020/12/28 10:21:40;;;;;;;2.25;1.70;;;5.20;54.40;;;;;;5069952;28;20052;-72
2020/12/28 10:24:07;;;;;;;2.85;1.67;;;5.20;54.40;;;;;;5069001;28;20058;-74
2020/12/28 10:26:34;;;;;;;2.22;1.60;;;5.30;54.50;;;;;;5070012;28;20148;-73
2020/12/28 10:29:01;;;;;;;3.15;1.50;;;5.30;53.50;;;;;;5068743;28;20509;-72
2020/12/28 10:31:27;;;;;;;5.03;1.85;;;5.30;52.30;;;;;;5068501;28;20055;-74
2020/12/28 10:33:55;;;;;;;2.83;1.90;;;5.50;53.00;;;;;;5067285;28;20056;-74
2020/12/28 10:36:24;;;;;;;2.42;2.00;;;5.40;52.10;;;;;;5068732;28;20040;-74
2020/12/28 10:38:53;;;;;;;4.35;2.00;;;5.50;52.50;;;;;;5066664;28;20045;-73
2020/12/28 10:41:24;;;;;;;2.83;2.00;;;5.50;51.50;;;;;;5068213;28;20052;-73
2020/12/28 10:43:51;;;;;;;2.42;1.85;;;5.40;50.40;;;;;;5067566;28;20136;-73
2020/12/28 10:46:19;;;;;;;2.47;1.92;;;5.40;50.70;;;;;;5069299;28;20075;-74
2020/12/28 10:48:46;;;;;;;3.08;2.00;;;5.40;49.90;;;;;;5067546;28;20837;-73
2020/12/28 10:51:14;;;;;;;3.80;2.50;;;5.40;50.20;;;;;;5067987;28;20052;-75
2020/12/28 10:53:42;;;;;;;12.60;2.42;;;5.40;51.80;;;;;;5066553;28;20057;-73
2020/12/28 10:56:09;;;;;;;2.65;2.10;;;5.40;49.40;;;;;;5068871;28;20067;-73
2020/12/28 10:58:36;;;;;;;4.43;2.20;;;5.40;47.80;;;;;;5066748;28;20056;-74
2020/12/28 11:01:05;;;;;;;3.63;2.40;;;5.40;49.10;;;;;;5068375;28;20048;-74
2020/12/28 11:03:33;;;;;;;4.07;2.65;;;5.50;46.90;;;;;;5066274;28;20049;-75
2020/12/28 11:06:01;;;;;;;5.63;3.50;;;5.50;47.30;;;;;;5068584;28;20044;-74
2020/12/28 11:08:28;;;;;;;4.00;3.25;;;5.60;43.90;;;;;;5066719;28;20067;-74
2020/12/28 11:10:56;;;;;;;5.47;2.72;;;5.70;44.80;;;;;;5067041;28;20529;-75
2020/12/28 11:13:22;;;;;;;5.70;3.28;;;5.70;44.00;;;;;;5062967;28;20056;-74
2020/12/28 11:15:50;;;;;;;5.30;2.65;;;5.60;44.00;;;;;;5071149;28;20088;-73
2020/12/28 11:18:17;;;;;;;5.25;2.75;;;5.50;44.30;;;;;;5070267;28;20051;-73
2020/12/28 11:20:44;;;;;;;3.38;2.40;;;5.60;44.60;;;;;;5071808;28;20048;-75
2020/12/28 11:23:15;;;;;;;6.65;3.90;;;5.50;43.90;;;;;;5070355;28;20076;-74
2020/12/28 11:25:42;;;;;;;6.72;3.10;;;5.50;45.10;;;;;;5072334;28;20430;-72
2020/12/28 11:28:09;;;;;;;3.97;2.70;;;5.60;45.40;;;;;;5070060;28;20056;-73
2020/12/28 11:30:36;;;;;;;5.20;3.03;;;5.60;44.70;;;;;;5071590;28;20048;-73
2020/12/28 11:33:03;;;;;;;3.97;2.97;;;5.60;45.30;;;;;;5069558;28;20040;-76
2020/12/28 11:35:31;;;;;;;3.97;2.53;;;5.60;45.40;;;;;;5070924;28;20048;-73
2020/12/28 11:37:58;;;;;;;3.53;2.78;;;5.50;43.20;;;;;;5070008;28;20527;-73
2020/12/28 11:40:25;;;;;;;6.13;2.92;;;5.50;44.50;;;;;;5071345;28;20066;-72
2020/12/28 11:42:51;;;;;;;5.05;2.97;;;5.60;44.50;;;;;;5068816;28;20054;-74
2020/12/28 11:45:19;;;;;;;4.53;3.13;;;5.50;45.00;;;;;;5069118;28;20049;-72
2020/12/28 11:47:46;;;;;;;6.43;3.40;;;5.60;46.20;;;;;;5069832;28;20044;-72
2020/12/28 11:50:13;;;;;;;5.55;3.38;;;5.60;45.00;;;;;;5069874;28;20036;-72
2020/12/28 11:52:40;;;;;;;4.90;3.13;;;5.60;45.40;;;;;;5072218;28;20044;-73
2020/12/28 11:55:07;;;;;;;28.08;18.25;;;5.60;43.20;;;;;;5068915;28;20052;-72
2020/12/28 11:57:34;;;;;;;11.23;8.13;;;5.70;46.80;;;;;;5072360;28;20524;-74
2020/12/28 12:00:01;;;;;;;14.55;8.98;;;5.70;45.00;;;;;;5070635;28;20040;-72
2020/12/28 12:02:29;;;;;;;5.43;3.92;;;5.60;45.70;;;;;;5071693;28;20057;-72
2020/12/28 12:04:56;;;;;;;5.28;3.40;;;5.60;45.10;;;;;;5070425;28;20426;-71
2020/12/28 12:07:23;;;;;;;4.72;3.33;;;5.60;45.80;;;;;;5071708;28;20051;-73
2020/12/28 12:09:51;;;;;;;5.03;3.78;;;5.60;45.40;;;;;;5068053;28;20041;-72
2020/12/28 12:12:19;;;;;;;5.07;3.70;;;5.70;45.80;;;;;;5071139;28;20056;-74
2020/12/28 12:14:46;;;;;;;6.13;3.63;;;5.70;46.40;;;;;;5071277;28;20067;-73
2020/12/28 12:17:13;;;;;;;4.32;3.30;;;5.80;46.00;;;;;;5071903;28;20063;-73
2020/12/28 12:19:41;;;;;;;7.30;3.55;;;5.80;45.40;;;;;;5067142;28;20498;-73
2020/12/28 12:22:08;;;;;;;4.70;2.92;;;5.80;43.40;;;;;;5071055;28;20064;-75
2020/12/28 12:24:36;;;;;;;4.35;2.85;;;5.80;42.90;;;;;;5070880;28;20495;-72
2020/12/28 12:27:02;;;;;;;5.55;3.60;;;5.80;41.70;;;;;;5071720;28;20055;-72
2020/12/28 12:29:29;;;;;;;3.85;3.28;;;5.80;41.90;;;;;;5070221;28;20057;-72
2020/12/28 12:31:56;;;;;;;4.43;3.25;;;5.80;40.70;;;;;;5070890;28;21218;-73
2020/12/28 12:34:23;;;;;;;7.57;3.40;;;5.80;40.90;;;;;;5066509;28;20092;-73
2020/12/28 12:36:52;;;;;;;7.00;3.53;;;5.80;39.40;;;;;;5069270;28;20049;-73
2020/12/28 12:39:19;;;;;;;4.65;3.55;;;5.80;40.50;;;;;;5065915;28;20084;-74
2020/12/28 12:41:48;;;;;;;3.55;2.95;;;5.80;40.50;;;;;;5064525;28;20063;-75
2020/12/28 12:44:14;;;;;;;5.30;3.60;;;5.70;38.70;;;;;;5062108;28;20055;-74
2020/12/28 12:46:41;;;;;;;5.05;3.53;;;5.70;38.70;;;;;;5067637;28;20048;-74
2020/12/28 12:49:08;;;;;;;3.92;3.15;;;5.70;40.10;;;;;;5068051;28;20040;-73
2020/12/28 12:51:36;;;;;;;4.90;3.35;;;5.70;39.70;;;;;;5068167;28;20387;-72
2020/12/28 12:54:03;;;;;;;4.72;3.35;;;5.70;41.90;;;;;;5067651;28;20048;-73
2020/12/28 12:56:30;;;;;;;4.82;3.30;;;5.70;42.10;;;;;;5070316;28;20431;-71
2020/12/28 12:58:57;;;;;;;4.35;3.50;;;5.70;42.10;;;;;;5068237;28;20456;-71
2020/12/28 13:01:24;;;;;;;5.50;3.00;;;5.70;42.60;;;;;;5067040;28;20056;-72
2020/12/28 13:03:51;;;;;;;2.85;2.50;;;5.70;43.30;;;;;;5067243;28;20053;-72
2020/12/28 13:06:18;;;;;;;4.40;2.30;;;5.60;42.60;;;;;;5067468;28;20063;-72